sensor_id;sensor_type;location;lat;lon;timestamp;noise_LAeq;noise_LA_min;noise_LA_max;noise_LA01;noise_LA95
69616;Laerm;56822;52.516;4.708;2024-02-26T00:00:05;44.63;42.42;46.74;;
69616;Laerm;56822;52.516;4.708;2024-02-26T00:00:19;44.62;42.28;47.82;;
69616;Laerm;56822;52.516;4.708;2024-02-26T00:00:29;44.18;41.81;46.38;;
69616;Laerm;56822;52.516;4.708;2024-02-26T00:00:40;44.61;42.36;46.97;;
69616;Laerm;56822;52.516;4.708;2024-02-26T00:00:50;45.06;42.67;47.42;;
69616;Laerm;56822;52.516;4.708;2024-02-26T00:01:01;44.47;42.34;46.68;;
69616;Laerm;56822;52.516;4.708;2024-02-26T00:01:12;44.57;42.43;47.48;;
69616;Laerm;56822;52.516;4.708;2024-02-26T00:01:22;44.48;41.37;46.58;;
69616;Laerm;56822;52.516;4.708;2024-02-26T00:01:32;44.10;41.72;46.06;;
69616;Laerm;56822;52.516;4.708;2024-02-26T00:01:44;44.40;41.87;49.49;;
69616;Laerm;56822;52.516;4.708;2024-02-26T00:01:54;44.22;40.94;46.00;;
69616;Laerm;56822;52.516;4.708;2024-02-26T00:02:04;44.58;41.00;46.78;;
69616;Laerm;56822;52.516;4.708;2024-02-26T00:02:15;44.33;41.72;46.51;;
69616;Laerm;56822;52.516;4.708;2024-02-26T00:02:25;44.35;41.99;49.12;;
69616;Laerm;56822;52.516;4.708;2024-02-26T00:02:36;43.71;41.54;46.08;;
69616;Laerm;56822;52.516;4.708;2024-02-26T00:02:47;43.50;40.97;46.19;;
69616;Laerm;56822;52.516;4.708;2024-02-26T00:02:58;43.49;40.85;46.00;;
69616;Laerm;56822;52.516;4.708;2024-02-26T00:03:08;44.24;41.90;46.36;;
69616;Laerm;56822;52.516;4.708;2024-02-26T00:03:18;44.65;42.75;47.19;;
69616;Laerm;56822;52.516;4.708;2024-02-26T00:03:28;44.18;42.18;46.41;;
69616;Laerm;56822;52.516;4.708;2024-02-26T00:03:39;44.07;41.15;46.72;;
69616;Laerm;56822;52.516;4.708;2024-02-26T00:03:52;44.66;42.34;46.59;;
69616;Laerm;56822;52.516;4.708;2024-02-26T00:04:02;44.37;42.23;46.84;;
69616;Laerm;56822;52.516;4.708;2024-02-26T00:04:13;44.57;42.46;46.73;;
69616;Laerm;56822;52.516;4.708;2024-02-26T00:04:23;44.78;41.93;46.91;;
69616;Laerm;56822;52.516;4.708;2024-02-26T00:04:33;44.78;42.37;47.35;;
69616;Laerm;56822;52.516;4.708;2024-02-26T00:04:44;44.90;42.35;46.96;;
69616;Laerm;56822;52.516;4.708;2024-02-26T00:04:54;44.73;42.28;47.52;;
69616;Laerm;56822;52.516;4.708;2024-02-26T00:05:05;44.61;41.94;48.71;;
69616;Laerm;56822;52.516;4.708;2024-02-26T00:05:16;44.33;41.09;46.31;;
69616;Laerm;56822;52.516;4.708;2024-02-26T00:05:26;44.58;42.16;47.37;;
69616;Laerm;56822;52.516;4.708;2024-02-26T00:05:37;44.13;41.64;45.88;;
69616;Laerm;56822;52.516;4.708;2024-02-26T00:05:48;44.21;40.80;46.75;;
69616;Laerm;56822;52.516;4.708;2024-02-26T00:05:59;44.21;42.19;47.08;;
69616;Laerm;56822;52.516;4.708;2024-02-26T00:06:09;44.12;41.93;46.15;;
69616;Laerm;56822;52.516;4.708;2024-02-26T00:06:19;44.02;41.47;46.48;;
69616;Laerm;56822;52.516;4.708;2024-02-26T00:06:30;44.08;41.04;46.12;;
69616;Laerm;56822;52.516;4.708;2024-02-26T00:06:41;44.39;42.41;47.28;;
69616;Laerm;56822;52.516;4.708;2024-02-26T00:06:51;44.80;42.82;47.02;;
69616;Laerm;56822;52.516;4.708;2024-02-26T00:07:04;44.35;41.64;46.81;;
69616;Laerm;56822;52.516;4.708;2024-02-26T00:07:14;44.38;41.56;47.13;;
69616;Laerm;56822;52.516;4.708;2024-02-26T00:07:24;44.58;41.57;46.83;;
69616;Laerm;56822;52.516;4.708;2024-02-26T00:07:35;44.49;42.53;46.38;;
69616;Laerm;56822;52.516;4.708;2024-02-26T00:07:45;44.04;42.22;46.03;;
69616;Laerm;56822;52.516;4.708;2024-02-26T00:07:57;43.84;40.97;46.45;;
69616;Laerm;56822;52.516;4.708;2024-02-26T00:08:07;43.47;40.24;45.76;;
69616;Laerm;56822;52.516;4.708;2024-02-26T00:08:17;43.69;41.54;46.40;;
69616;Laerm;56822;52.516;4.708;2024-02-26T00:08:28;43.57;41.75;46.16;;
69616;Laerm;56822;52.516;4.708;2024-02-26T00:08:38;43.76;42.03;45.72;;
69616;Laerm;56822;52.516;4.708;2024-02-26T00:08:48;43.75;41.84;46.10;;
69616;Laerm;56822;52.516;4.708;2024-02-26T00:08:59;43.67;42.02;45.92;;
69616;Laerm;56822;52.516;4.708;2024-02-26T00:09:09;43.60;41.68;46.25;;
69616;Laerm;56822;52.516;4.708;2024-02-26T00:09:19;43.84;41.85;46.13;;
69616;Laerm;56822;52.516;4.708;2024-02-26T00:09:29;43.99;41.63;46.32;;
69616;Laerm;56822;52.516;4.708;2024-02-26T00:09:40;43.46;41.33;45.32;;
69616;Laerm;56822;52.516;4.708;2024-02-26T00:09:50;43.34;41.46;45.27;;
69616;Laerm;56822;52.516;4.708;2024-02-26T00:10:01;43.50;40.82;46.02;;
69616;Laerm;56822;52.516;4.708;2024-02-26T00:10:11;43.46;41.37;44.87;;
69616;Laerm;56822;52.516;4.708;2024-02-26T00:10:21;43.97;41.69;46.71;;
69616;Laerm;56822;52.516;4.708;2024-02-26T00:10:31;43.95;41.66;45.87;;
69616;Laerm;56822;52.516;4.708;2024-02-26T00:10:42;43.73;41.84;46.94;;
69616;Laerm;56822;52.516;4.708;2024-02-26T00:10:53;44.42;42.47;46.80;;
69616;Laerm;56822;52.516;4.708;2024-02-26T00:11:03;43.76;41.94;45.71;;
69616;Laerm;56822;52.516;4.708;2024-02-26T00:11:13;43.78;41.92;45.44;;
69616;Laerm;56822;52.516;4.708;2024-02-26T00:11:24;43.51;41.51;45.35;;
69616;Laerm;56822;52.516;4.708;2024-02-26T00:11:35;43.49;41.58;45.07;;
69616;Laerm;56822;52.516;4.708;2024-02-26T00:11:45;43.82;41.74;46.45;;
69616;Laerm;56822;52.516;4.708;2024-02-26T00:11:56;43.69;41.23;47.06;;
69616;Laerm;56822;52.516;4.708;2024-02-26T00:12:06;43.69;41.89;45.64;;
69616;Laerm;56822;52.516;4.708;2024-02-26T00:12:16;43.84;41.93;46.37;;
69616;Laerm;56822;52.516;4.708;2024-02-26T00:12:27;43.47;41.64;47.12;;
69616;Laerm;56822;52.516;4.708;2024-02-26T00:12:37;44.05;41.32;51.90;;
69616;Laerm;56822;52.516;4.708;2024-02-26T00:12:49;43.97;41.67;50.14;;
69616;Laerm;56822;52.516;4.708;2024-02-26T00:12:59;43.82;41.03;45.85;;
69616;Laerm;56822;52.516;4.708;2024-02-26T00:13:09;43.53;41.24;46.40;;
69616;Laerm;56822;52.516;4.708;2024-02-26T00:13:20;43.61;41.24;45.99;;
69616;Laerm;56822;52.516;4.708;2024-02-26T00:13:30;43.98;41.06;45.80;;
69616;Laerm;56822;52.516;4.708;2024-02-26T00:13:40;44.11;42.06;46.54;;
69616;Laerm;56822;52.516;4.708;2024-02-26T00:13:51;44.12;41.16;46.88;;
69616;Laerm;56822;52.516;4.708;2024-02-26T00:14:01;43.55;41.55;45.62;;
69616;Laerm;56822;52.516;4.708;2024-02-26T00:14:11;43.24;40.52;47.29;;
69616;Laerm;56822;52.516;4.708;2024-02-26T00:14:22;43.68;41.31;46.46;;
69616;Laerm;56822;52.516;4.708;2024-02-26T00:14:32;43.64;40.86;46.23;;
69616;Laerm;56822;52.516;4.708;2024-02-26T00:14:42;43.88;41.82;46.71;;
69616;Laerm;56822;52.516;4.708;2024-02-26T00:14:55;43.16;40.70;46.32;;
69616;Laerm;56822;52.516;4.708;2024-02-26T00:15:08;43.77;40.50;47.82;;
69616;Laerm;56822;52.516;4.708;2024-02-26T00:15:18;43.45;40.48;46.42;;
69616;Laerm;56822;52.516;4.708;2024-02-26T00:15:28;43.15;40.73;47.31;;
69616;Laerm;56822;52.516;4.708;2024-02-26T00:15:39;43.05;40.72;45.48;;
69616;Laerm;56822;52.516;4.708;2024-02-26T00:15:49;44.30;41.35;47.37;;
69616;Laerm;56822;52.516;4.708;2024-02-26T00:15:59;43.87;41.05;47.68;;
69616;Laerm;56822;52.516;4.708;2024-02-26T00:16:10;43.85;40.98;47.07;;
69616;Laerm;56822;52.516;4.708;2024-02-26T00:16:20;43.68;41.73;46.77;;
69616;Laerm;56822;52.516;4.708;2024-02-26T00:16:30;44.83;42.27;47.77;;
69616;Laerm;56822;52.516;4.708;2024-02-26T00:16:41;43.58;40.69;46.81;;
69616;Laerm;56822;52.516;4.708;2024-02-26T00:16:51;42.95;40.81;45.95;;
69616;Laerm;56822;52.516;4.708;2024-02-26T00:17:02;43.31;40.71;46.11;;
69616;Laerm;56822;52.516;4.708;2024-02-26T00:17:13;44.64;41.66;47.74;;
69616;Laerm;56822;52.516;4.708;2024-02-26T00:17:23;44.70;42.78;47.46;;
69616;Laerm;56822;52.516;4.708;2024-02-26T00:17:34;44.34;41.82;48.65;;
69616;Laerm;56822;52.516;4.708;2024-02-26T00:17:44;44.15;41.18;48.13;;
69616;Laerm;56822;52.516;4.708;2024-02-26T00:17:55;43.92;41.69;46.61;;
69616;Laerm;56822;52.516;4.708;2024-02-26T00:18:05;44.32;41.51;48.49;;
69616;Laerm;56822;52.516;4.708;2024-02-26T00:18:16;43.92;41.02;47.79;;
69616;Laerm;56822;52.516;4.708;2024-02-26T00:18:30;43.49;40.74;47.24;;
69616;Laerm;56822;52.516;4.708;2024-02-26T00:18:40;43.22;39.89;45.38;;
69616;Laerm;56822;52.516;4.708;2024-02-26T00:18:52;41.88;40.17;45.14;;
69616;Laerm;56822;52.516;4.708;2024-02-26T00:19:02;42.58;40.38;45.62;;
69616;Laerm;56822;52.516;4.708;2024-02-26T00:19:15;42.79;40.11;46.96;;
69616;Laerm;56822;52.516;4.708;2024-02-26T00:19:27;42.38;40.10;46.42;;
69616;Laerm;56822;52.516;4.708;2024-02-26T00:19:37;42.22;40.32;44.47;;
69616;Laerm;56822;52.516;4.708;2024-02-26T00:19:47;42.04;40.32;44.54;;
69616;Laerm;56822;52.516;4.708;2024-02-26T00:19:58;41.91;40.17;44.99;;
69616;Laerm;56822;52.516;4.708;2024-02-26T00:20:14;41.97;39.88;44.50;;
69616;Laerm;56822;52.516;4.708;2024-02-26T00:20:24;42.03;40.25;44.05;;
69616;Laerm;56822;52.516;4.708;2024-02-26T00:20:35;42.06;40.41;44.55;;
69616;Laerm;56822;52.516;4.708;2024-02-26T00:20:46;41.93;40.29;43.86;;
69616;Laerm;56822;52.516;4.708;2024-02-26T00:20:56;41.62;39.85;43.68;;
69616;Laerm;56822;52.516;4.708;2024-02-26T00:21:06;41.65;39.99;43.24;;
69616;Laerm;56822;52.516;4.708;2024-02-26T00:21:16;41.96;40.18;43.97;;
69616;Laerm;56822;52.516;4.708;2024-02-26T00:21:27;41.51;40.16;43.40;;
69616;Laerm;56822;52.516;4.708;2024-02-26T00:21:40;41.98;40.16;44.54;;
69616;Laerm;56822;52.516;4.708;2024-02-26T00:21:52;42.21;40.22;46.36;;
69616;Laerm;56822;52.516;4.708;2024-02-26T00:22:03;41.45;39.52;43.94;;
69616;Laerm;56822;52.516;4.708;2024-02-26T00:22:14;41.42;39.31;43.64;;
69616;Laerm;56822;52.516;4.708;2024-02-26T00:22:24;41.78;39.72;46.33;;
69616;Laerm;56822;52.516;4.708;2024-02-26T00:22:36;42.52;40.24;45.59;;
69616;Laerm;56822;52.516;4.708;2024-02-26T00:22:47;42.52;40.85;45.42;;
69616;Laerm;56822;52.516;4.708;2024-02-26T00:22:58;41.65;39.89;43.37;;
69616;Laerm;56822;52.516;4.708;2024-02-26T00:23:08;42.61;40.87;47.29;;
69616;Laerm;56822;52.516;4.708;2024-02-26T00:23:22;41.46;39.80;42.94;;
69616;Laerm;56822;52.516;4.708;2024-02-26T00:23:36;41.60;39.99;44.15;;
69616;Laerm;56822;52.516;4.708;2024-02-26T00:23:52;41.96;40.03;43.88;;
69616;Laerm;56822;52.516;4.708;2024-02-26T00:24:02;42.42;40.56;46.49;;
69616;Laerm;56822;52.516;4.708;2024-02-26T00:24:12;42.69;40.37;45.28;;
69616;Laerm;56822;52.516;4.708;2024-02-26T00:24:23;42.31;40.38;45.67;;
69616;Laerm;56822;52.516;4.708;2024-02-26T00:24:33;41.94;40.02;44.57;;
69616;Laerm;56822;52.516;4.708;2024-02-26T00:24:44;42.23;40.15;44.91;;
69616;Laerm;56822;52.516;4.708;2024-02-26T00:24:55;42.04;39.99;44.35;;
69616;Laerm;56822;52.516;4.708;2024-02-26T00:25:05;42.19;40.25;44.80;;
69616;Laerm;56822;52.516;4.708;2024-02-26T00:25:15;42.19;39.25;44.48;;
69616;Laerm;56822;52.516;4.708;2024-02-26T00:25:26;43.08;40.88;45.54;;
69616;Laerm;56822;52.516;4.708;2024-02-26T00:25:36;43.09;39.98;46.07;;
69616;Laerm;56822;52.516;4.708;2024-02-26T00:25:47;43.10;40.82;45.67;;
69616;Laerm;56822;52.516;4.708;2024-02-26T00:25:59;43.22;41.17;45.73;;
69616;Laerm;56822;52.516;4.708;2024-02-26T00:26:10;42.67;40.26;45.11;;
69616;Laerm;56822;52.516;4.708;2024-02-26T00:26:21;43.14;40.47;45.81;;
69616;Laerm;56822;52.516;4.708;2024-02-26T00:26:32;42.66;40.47;46.57;;
69616;Laerm;56822;52.516;4.708;2024-02-26T00:26:42;42.35;40.17;44.70;;
69616;Laerm;56822;52.516;4.708;2024-02-26T00:26:52;42.40;40.25;45.19;;
69616;Laerm;56822;52.516;4.708;2024-02-26T00:27:04;42.34;40.34;44.93;;
69616;Laerm;56822;52.516;4.708;2024-02-26T00:27:14;42.19;40.22;44.96;;
69616;Laerm;56822;52.516;4.708;2024-02-26T00:27:25;42.38;40.48;45.25;;
69616;Laerm;56822;52.516;4.708;2024-02-26T00:27:38;42.84;40.63;48.01;;
69616;Laerm;56822;52.516;4.708;2024-02-26T00:27:50;42.84;40.62;47.60;;
69616;Laerm;56822;52.516;4.708;2024-02-26T00:28:00;42.73;40.64;45.02;;
69616;Laerm;56822;52.516;4.708;2024-02-26T00:28:10;42.95;40.57;46.57;;
69616;Laerm;56822;52.516;4.708;2024-02-26T00:28:24;42.57;40.04;46.60;;
69616;Laerm;56822;52.516;4.708;2024-02-26T00:28:34;42.79;40.22;46.84;;
69616;Laerm;56822;52.516;4.708;2024-02-26T00:28:46;42.65;40.17;45.25;;
69616;Laerm;56822;52.516;4.708;2024-02-26T00:29:01;43.27;41.22;46.22;;
69616;Laerm;56822;52.516;4.708;2024-02-26T00:29:11;42.55;40.17;45.78;;
69616;Laerm;56822;52.516;4.708;2024-02-26T00:29:21;42.87;39.90;46.15;;
69616;Laerm;56822;52.516;4.708;2024-02-26T00:29:32;42.52;40.44;45.88;;
69616;Laerm;56822;52.516;4.708;2024-02-26T00:29:42;42.48;39.95;48.43;;
69616;Laerm;56822;52.516;4.708;2024-02-26T00:29:52;42.05;40.42;44.31;;
69616;Laerm;56822;52.516;4.708;2024-02-26T00:30:04;42.61;40.15;45.64;;
69616;Laerm;56822;52.516;4.708;2024-02-26T00:30:15;42.37;39.51;45.09;;
69616;Laerm;56822;52.516;4.708;2024-02-26T00:30:25;42.12;39.98;44.88;;
69616;Laerm;56822;52.516;4.708;2024-02-26T00:30:36;41.98;39.95;44.73;;
69616;Laerm;56822;52.516;4.708;2024-02-26T00:30:46;42.32;40.09;45.21;;
69616;Laerm;56822;52.516;4.708;2024-02-26T00:30:56;42.43;40.35;44.67;;
69616;Laerm;56822;52.516;4.708;2024-02-26T00:31:07;42.41;40.34;45.27;;
69616;Laerm;56822;52.516;4.708;2024-02-26T00:31:17;42.45;39.69;45.13;;
69616;Laerm;56822;52.516;4.708;2024-02-26T00:31:27;41.96;39.75;45.31;;
69616;Laerm;56822;52.516;4.708;2024-02-26T00:31:38;41.72;39.66;46.81;;
69616;Laerm;56822;52.516;4.708;2024-02-26T00:31:48;41.77;39.95;44.61;;
69616;Laerm;56822;52.516;4.708;2024-02-26T00:31:59;42.68;40.33;48.26;;
69616;Laerm;56822;52.516;4.708;2024-02-26T00:32:09;41.51;39.68;43.91;;
69616;Laerm;56822;52.516;4.708;2024-02-26T00:32:20;41.35;39.32;44.83;;
69616;Laerm;56822;52.516;4.708;2024-02-26T00:32:30;41.90;39.41;45.06;;
69616;Laerm;56822;52.516;4.708;2024-02-26T00:32:40;41.21;39.54;43.68;;
69616;Laerm;56822;52.516;4.708;2024-02-26T00:32:56;43.34;40.26;47.20;;
69616;Laerm;56822;52.516;4.708;2024-02-26T00:33:07;42.19;40.18;46.69;;
69616;Laerm;56822;52.516;4.708;2024-02-26T00:33:17;42.00;39.72;45.44;;
69616;Laerm;56822;52.516;4.708;2024-02-26T00:33:27;42.51;39.86;47.17;;
69616;Laerm;56822;52.516;4.708;2024-02-26T00:33:38;40.95;39.47;43.13;;
69616;Laerm;56822;52.516;4.708;2024-02-26T00:33:48;41.34;39.52;46.06;;
69616;Laerm;56822;52.516;4.708;2024-02-26T00:33:58;41.12;39.70;42.68;;
69616;Laerm;56822;52.516;4.708;2024-02-26T00:34:09;41.08;39.57;44.77;;
69616;Laerm;56822;52.516;4.708;2024-02-26T00:34:19;41.46;40.01;44.59;;
69616;Laerm;56822;52.516;4.708;2024-02-26T00:34:29;42.13;39.71;45.78;;
69616;Laerm;56822;52.516;4.708;2024-02-26T00:34:40;41.95;39.42;45.25;;
69616;Laerm;56822;52.516;4.708;2024-02-26T00:34:54;42.07;39.65;44.78;;
69616;Laerm;56822;52.516;4.708;2024-02-26T00:35:04;42.32;40.01;45.80;;
69616;Laerm;56822;52.516;4.708;2024-02-26T00:35:14;42.47;39.94;45.69;;
69616;Laerm;56822;52.516;4.708;2024-02-26T00:35:25;41.83;39.69;44.31;;
69616;Laerm;56822;52.516;4.708;2024-02-26T00:35:39;41.18;39.29;43.92;;
69616;Laerm;56822;52.516;4.708;2024-02-26T00:35:49;40.88;39.14;42.76;;
69616;Laerm;56822;52.516;4.708;2024-02-26T00:35:59;41.58;40.05;44.60;;
69616;Laerm;56822;52.516;4.708;2024-02-26T00:36:09;42.01;40.06;44.39;;
69616;Laerm;56822;52.516;4.708;2024-02-26T00:36:20;42.54;40.53;44.90;;
69616;Laerm;56822;52.516;4.708;2024-02-26T00:36:30;42.30;39.50;45.52;;
69616;Laerm;56822;52.516;4.708;2024-02-26T00:36:41;41.83;39.38;44.51;;
69616;Laerm;56822;52.516;4.708;2024-02-26T00:36:51;42.43;39.91;45.82;;
69616;Laerm;56822;52.516;4.708;2024-02-26T00:37:03;42.27;39.86;47.49;;
69616;Laerm;56822;52.516;4.708;2024-02-26T00:37:15;42.36;40.04;44.79;;
69616;Laerm;56822;52.516;4.708;2024-02-26T00:37:25;42.76;39.96;46.40;;
69616;Laerm;56822;52.516;4.708;2024-02-26T00:37:38;43.27;40.36;46.81;;
69616;Laerm;56822;52.516;4.708;2024-02-26T00:37:49;42.25;40.04;45.01;;
69616;Laerm;56822;52.516;4.708;2024-02-26T00:37:59;42.33;39.81;46.83;;
69616;Laerm;56822;52.516;4.708;2024-02-26T00:38:11;42.26;40.13;44.87;;
69616;Laerm;56822;52.516;4.708;2024-02-26T00:38:21;42.72;39.57;45.82;;
69616;Laerm;56822;52.516;4.708;2024-02-26T00:38:31;42.78;39.51;46.85;;
69616;Laerm;56822;52.516;4.708;2024-02-26T00:38:41;43.07;40.24;49.42;;
69616;Laerm;56822;52.516;4.708;2024-02-26T00:38:55;43.50;40.15;46.96;;
69616;Laerm;56822;52.516;4.708;2024-02-26T00:39:05;43.25;39.90;46.91;;
69616;Laerm;56822;52.516;4.708;2024-02-26T00:39:16;43.27;40.39;47.67;;
69616;Laerm;56822;52.516;4.708;2024-02-26T00:39:26;43.44;40.50;47.55;;
69616;Laerm;56822;52.516;4.708;2024-02-26T00:39:37;43.96;40.18;48.45;;
69616;Laerm;56822;52.516;4.708;2024-02-26T00:39:47;42.39;39.41;47.51;;
69616;Laerm;56822;52.516;4.708;2024-02-26T00:39:57;42.65;39.68;45.13;;
69616;Laerm;56822;52.516;4.708;2024-02-26T00:40:08;42.83;39.65;46.44;;
69616;Laerm;56822;52.516;4.708;2024-02-26T00:40:22;41.73;39.62;45.97;;
69616;Laerm;56822;52.516;4.708;2024-02-26T00:40:32;43.36;39.94;46.48;;
69616;Laerm;56822;52.516;4.708;2024-02-26T00:40:42;42.71;40.26;46.75;;
69616;Laerm;56822;52.516;4.708;2024-02-26T00:40:52;42.69;39.87;46.28;;
69616;Laerm;56822;52.516;4.708;2024-02-26T00:41:04;42.46;39.90;45.36;;
69616;Laerm;56822;52.516;4.708;2024-02-26T00:41:15;41.82;39.66;45.00;;
69616;Laerm;56822;52.516;4.708;2024-02-26T00:41:25;41.62;38.84;44.59;;
69616;Laerm;56822;52.516;4.708;2024-02-26T00:41:41;42.56;39.77;47.32;;
69616;Laerm;56822;52.516;4.708;2024-02-26T00:41:51;42.96;40.45;46.26;;
69616;Laerm;56822;52.516;4.708;2024-02-26T00:42:02;42.83;39.83;45.81;;
69616;Laerm;56822;52.516;4.708;2024-02-26T00:42:14;42.96;39.99;46.00;;
69616;Laerm;56822;52.516;4.708;2024-02-26T00:42:24;42.70;40.10;44.99;;
69616;Laerm;56822;52.516;4.708;2024-02-26T00:42:34;41.98;39.59;45.76;;
69616;Laerm;56822;52.516;4.708;2024-02-26T00:42:46;42.57;40.62;46.49;;
69616;Laerm;56822;52.516;4.708;2024-02-26T00:42:57;42.89;39.68;45.73;;
69616;Laerm;56822;52.516;4.708;2024-02-26T00:43:08;42.59;39.69;46.72;;
69616;Laerm;56822;52.516;4.708;2024-02-26T00:43:19;41.86;39.42;45.93;;
69616;Laerm;56822;52.516;4.708;2024-02-26T00:43:29;41.87;39.97;44.84;;
69616;Laerm;56822;52.516;4.708;2024-02-26T00:43:40;42.34;39.72;45.20;;
69616;Laerm;56822;52.516;4.708;2024-02-26T00:43:52;41.72;39.49;44.38;;
69616;Laerm;56822;52.516;4.708;2024-02-26T00:44:02;41.77;39.90;46.82;;
69616;Laerm;56822;52.516;4.708;2024-02-26T00:44:13;41.60;40.07;44.83;;
69616;Laerm;56822;52.516;4.708;2024-02-26T00:44:23;42.57;40.49;44.71;;
69616;Laerm;56822;52.516;4.708;2024-02-26T00:44:33;41.81;40.03;44.21;;
69616;Laerm;56822;52.516;4.708;2024-02-26T00:44:45;41.95;39.84;44.28;;
69616;Laerm;56822;52.516;4.708;2024-02-26T00:44:56;41.62;39.53;44.03;;
69616;Laerm;56822;52.516;4.708;2024-02-26T00:45:07;41.13;38.95;43.49;;
69616;Laerm;56822;52.516;4.708;2024-02-26T00:45:17;41.26;39.49;43.61;;
69616;Laerm;56822;52.516;4.708;2024-02-26T00:45:27;41.54;39.88;43.36;;
69616;Laerm;56822;52.516;4.708;2024-02-26T00:45:37;41.84;39.63;43.77;;
69616;Laerm;56822;52.516;4.708;2024-02-26T00:45:49;41.67;39.94;43.20;;
69616;Laerm;56822;52.516;4.708;2024-02-26T00:45:59;41.22;39.18;45.91;;
69616;Laerm;56822;52.516;4.708;2024-02-26T00:46:09;41.93;39.96;45.13;;
69616;Laerm;56822;52.516;4.708;2024-02-26T00:46:20;41.50;39.72;45.85;;
69616;Laerm;56822;52.516;4.708;2024-02-26T00:46:30;41.60;39.47;43.70;;
69616;Laerm;56822;52.516;4.708;2024-02-26T00:46:40;41.43;39.95;43.37;;
69616;Laerm;56822;52.516;4.708;2024-02-26T00:46:50;41.48;40.03;44.00;;
69616;Laerm;56822;52.516;4.708;2024-02-26T00:47:01;41.59;40.21;43.62;;
69616;Laerm;56822;52.516;4.708;2024-02-26T00:47:12;41.39;39.64;43.95;;
69616;Laerm;56822;52.516;4.708;2024-02-26T00:47:22;41.34;39.32;43.87;;
69616;Laerm;56822;52.516;4.708;2024-02-26T00:47:32;41.62;39.58;45.64;;
69616;Laerm;56822;52.516;4.708;2024-02-26T00:47:42;41.76;39.87;44.01;;
69616;Laerm;56822;52.516;4.708;2024-02-26T00:47:54;42.57;40.18;44.99;;
69616;Laerm;56822;52.516;4.708;2024-02-26T00:48:07;42.16;40.34;45.41;;
69616;Laerm;56822;52.516;4.708;2024-02-26T00:48:18;41.86;40.40;43.80;;
69616;Laerm;56822;52.516;4.708;2024-02-26T00:48:28;42.49;39.79;47.12;;
69616;Laerm;56822;52.516;4.708;2024-02-26T00:48:39;42.92;40.36;45.50;;
69616;Laerm;56822;52.516;4.708;2024-02-26T00:48:52;42.51;40.21;46.69;;
69616;Laerm;56822;52.516;4.708;2024-02-26T00:49:02;42.42;40.52;46.78;;
69616;Laerm;56822;52.516;4.708;2024-02-26T00:49:13;42.63;40.52;44.82;;
69616;Laerm;56822;52.516;4.708;2024-02-26T00:49:23;42.28;40.25;44.47;;
69616;Laerm;56822;52.516;4.708;2024-02-26T00:49:33;41.82;39.66;44.11;;
69616;Laerm;56822;52.516;4.708;2024-02-26T00:49:43;41.74;39.97;45.85;;
69616;Laerm;56822;52.516;4.708;2024-02-26T00:49:54;42.33;40.11;44.65;;
69616;Laerm;56822;52.516;4.708;2024-02-26T00:50:07;42.31;40.41;45.91;;
69616;Laerm;56822;52.516;4.708;2024-02-26T00:50:18;41.35;39.86;43.99;;
69616;Laerm;56822;52.516;4.708;2024-02-26T00:50:28;42.37;39.82;50.44;;
69616;Laerm;56822;52.516;4.708;2024-02-26T00:50:39;43.54;40.78;56.46;;
69616;Laerm;56822;52.516;4.708;2024-02-26T00:50:50;42.81;40.86;45.78;;
69616;Laerm;56822;52.516;4.708;2024-02-26T00:51:00;42.86;41.00;45.98;;
69616;Laerm;56822;52.516;4.708;2024-02-26T00:51:10;42.27;40.62;44.86;;
69616;Laerm;56822;52.516;4.708;2024-02-26T00:51:21;41.84;39.90;44.41;;
69616;Laerm;56822;52.516;4.708;2024-02-26T00:51:31;42.04;40.14;43.89;;
69616;Laerm;56822;52.516;4.708;2024-02-26T00:51:42;41.59;39.56;44.91;;
69616;Laerm;56822;52.516;4.708;2024-02-26T00:51:52;40.97;39.44;45.14;;
69616;Laerm;56822;52.516;4.708;2024-02-26T00:52:02;41.61;39.79;45.52;;
69616;Laerm;56822;52.516;4.708;2024-02-26T00:52:16;41.64;39.44;44.11;;
69616;Laerm;56822;52.516;4.708;2024-02-26T00:52:27;41.91;39.83;45.68;;
69616;Laerm;56822;52.516;4.708;2024-02-26T00:52:38;42.37;40.46;45.89;;
69616;Laerm;56822;52.516;4.708;2024-02-26T00:52:48;42.99;40.63;45.78;;
69616;Laerm;56822;52.516;4.708;2024-02-26T00:52:59;42.20;39.62;45.32;;
69616;Laerm;56822;52.516;4.708;2024-02-26T00:53:09;41.94;39.68;44.88;;
69616;Laerm;56822;52.516;4.708;2024-02-26T00:53:19;41.73;39.68;44.19;;
69616;Laerm;56822;52.516;4.708;2024-02-26T00:53:29;41.24;39.66;45.18;;
69616;Laerm;56822;52.516;4.708;2024-02-26T00:53:40;41.11;39.54;43.54;;
69616;Laerm;56822;52.516;4.708;2024-02-26T00:53:50;41.72;39.89;44.43;;
69616;Laerm;56822;52.516;4.708;2024-02-26T00:54:00;41.42;39.77;44.58;;
69616;Laerm;56822;52.516;4.708;2024-02-26T00:54:10;41.44;39.73;44.11;;
69616;Laerm;56822;52.516;4.708;2024-02-26T00:54:21;41.66;39.76;44.32;;
69616;Laerm;56822;52.516;4.708;2024-02-26T00:54:31;42.56;40.53;45.12;;
69616;Laerm;56822;52.516;4.708;2024-02-26T00:54:41;41.80;40.13;44.54;;
69616;Laerm;56822;52.516;4.708;2024-02-26T00:54:52;42.48;39.84;45.44;;
69616;Laerm;56822;52.516;4.708;2024-02-26T00:55:02;41.63;39.69;45.61;;
69616;Laerm;56822;52.516;4.708;2024-02-26T00:55:12;41.82;40.05;45.27;;
69616;Laerm;56822;52.516;4.708;2024-02-26T00:55:23;41.26;39.44;43.80;;
69616;Laerm;56822;52.516;4.708;2024-02-26T00:55:33;41.24;39.48;44.06;;
69616;Laerm;56822;52.516;4.708;2024-02-26T00:55:43;41.28;39.71;44.50;;
69616;Laerm;56822;52.516;4.708;2024-02-26T00:55:54;41.74;39.92;43.97;;
69616;Laerm;56822;52.516;4.708;2024-02-26T00:56:05;42.27;40.20;44.31;;
69616;Laerm;56822;52.516;4.708;2024-02-26T00:56:16;41.72;40.06;44.18;;
69616;Laerm;56822;52.516;4.708;2024-02-26T00:56:26;42.42;40.71;44.48;;
69616;Laerm;56822;52.516;4.708;2024-02-26T00:56:37;41.66;39.89;46.83;;
69616;Laerm;56822;52.516;4.708;2024-02-26T00:56:47;41.39;39.91;44.09;;
69616;Laerm;56822;52.516;4.708;2024-02-26T00:56:57;41.22;39.95;42.47;;
69616;Laerm;56822;52.516;4.708;2024-02-26T00:57:07;41.38;39.58;42.96;;
69616;Laerm;56822;52.516;4.708;2024-02-26T00:57:18;42.63;40.30;50.89;;
69616;Laerm;56822;52.516;4.708;2024-02-26T00:57:28;41.41;39.88;44.16;;
69616;Laerm;56822;52.516;4.708;2024-02-26T00:57:38;42.50;40.63;47.23;;
69616;Laerm;56822;52.516;4.708;2024-02-26T00:57:51;41.57;39.76;44.79;;
69616;Laerm;56822;52.516;4.708;2024-02-26T00:58:01;41.22;39.55;43.31;;
69616;Laerm;56822;52.516;4.708;2024-02-26T00:58:11;41.26;39.75;43.34;;
69616;Laerm;56822;52.516;4.708;2024-02-26T00:58:25;41.58;39.98;44.11;;
69616;Laerm;56822;52.516;4.708;2024-02-26T00:58:35;41.64;40.24;45.37;;
69616;Laerm;56822;52.516;4.708;2024-02-26T00:58:45;41.65;39.54;45.88;;
69616;Laerm;56822;52.516;4.708;2024-02-26T00:58:59;41.51;40.13;45.51;;
69616;Laerm;56822;52.516;4.708;2024-02-26T00:59:09;42.18;40.34;48.85;;
69616;Laerm;56822;52.516;4.708;2024-02-26T00:59:19;41.69;39.93;45.76;;
69616;Laerm;56822;52.516;4.708;2024-02-26T00:59:30;41.21;39.42;44.76;;
69616;Laerm;56822;52.516;4.708;2024-02-26T00:59:42;41.50;39.72;46.12;;
69616;Laerm;56822;52.516;4.708;2024-02-26T00:59:53;41.98;39.74;44.09;;
69616;Laerm;56822;52.516;4.708;2024-02-26T01:00:05;42.01;40.05;45.19;;
69616;Laerm;56822;52.516;4.708;2024-02-26T01:00:20;41.94;40.14;44.41;;
69616;Laerm;56822;52.516;4.708;2024-02-26T01:00:33;41.64;39.98;44.62;;